Time,TemperatureF,DewpointF,PressureIn,WindDirection,WindDirectionDegrees,WindSpeedMPH,WindSpeedGustMPH,Humidity,HourlyPrecipIn,Conditions,Clouds,dailyrainin,SoftwareType,DateUTC
2013-01-15 00:03:00,39.0,38.0,30.30,NW,315,3.0,12.0,95,0.09,,,0.21,,2013-01-15 05:03:00,
2013-01-15 00:12:00,39.0,38.0,30.29,North,0,0.0,5.0,95,0.06,,,0.23,,2013-01-15 05:12:00,
2013-01-15 00:22:00,39.0,38.0,30.29,North,0,0.0,5.0,95,0.06,,,0.23,,2013-01-15 05:22:00,
2013-01-15 00:33:00,39.0,38.0,30.29,North,0,0.0,4.0,95,0.04,,,0.23,,2013-01-15 05:33:00,
2013-01-15 00:42:00,39.0,38.0,30.29,North,0,0.0,4.0,95,0.04,,,0.23,,2013-01-15 05:42:00,
2013-01-15 00:53:00,39.0,38.0,30.29,NNW,333,1.0,3.0,96,0.05,,,0.25,,2013-01-15 05:53:00,
2013-01-15 01:02:00,39.0,38.0,30.28,North,0,0.0,2.0,96,0.06,,,0.27,,2013-01-15 06:02:00,
2013-01-15 01:12:00,39.0,38.0,30.28,North,0,0.0,2.0,96,0.06,,,0.27,,2013-01-15 06:12:00,
2013-01-15 01:22:00,39.0,38.0,30.29,North,0,0.0,2.0,96,0.08,,,0.29,,2013-01-15 06:22:00,
2013-01-15 01:33:00,39.0,38.0,30.27,WNW,297,3.0,5.0,96,0.09,,,0.31,,2013-01-15 06:33:00,
2013-01-15 01:43:00,39.0,38.0,30.27,WNW,297,3.0,5.0,96,0.09,,,0.31,,2013-01-15 06:43:00,
2013-01-15 01:53:00,38.0,37.0,30.27,North,0,0.0,5.0,96,0.12,,,0.35,,2013-01-15 06:53:00,
2013-01-15 02:02:00,38.0,37.0,30.26,WNW,297,1.0,4.0,96,0.09,,,0.36,,2013-01-15 07:02:00,
2013-01-15 02:12:00,38.0,37.0,30.26,WNW,297,1.0,4.0,96,0.09,,,0.36,,2013-01-15 07:12:00,
2013-01-15 02:22:00,38.0,37.0,30.25,WNW,297,1.0,3.0,96,0.08,,,0.37,,2013-01-15 07:22:00,
2013-01-15 02:33:00,38.0,37.0,30.26,WNW,297,1.0,3.0,96,0.03,,,0.37,,2013-01-15 07:33:00,
2013-01-15 02:42:00,38.0,37.0,30.26,WNW,297,1.0,3.0,96,0.03,,,0.37,,2013-01-15 07:42:00,
2013-01-15 02:53:00,37.0,36.0,30.25,North,0,0.0,4.0,96,0.04,,,0.39,,2013-01-15 07:53:00,
2013-01-15 03:02:00,37.0,36.0,30.24,North,0,0.0,2.0,97,0.03,,,0.39,,2013-01-15 08:02:00,
2013-01-15 03:12:00,37.0,36.0,30.24,North,0,0.0,2.0,97,0.03,,,0.39,,2013-01-15 08:12:00,
2013-01-15 03:22:00,37.0,36.0,30.26,North,0,0.0,2.0,97,0.02,,,0.39,,2013-01-15 08:22:00,
2013-01-15 03:33:00,37.0,36.0,30.26,NNW,344,2.0,4.0,97,0.02,,,0.39,,2013-01-15 08:33:00,
2013-01-15 03:42:00,37.0,36.0,30.26,NNW,344,2.0,4.0,97,0.02,,,0.39,,2013-01-15 08:42:00,
2013-01-15 03:53:00,37.0,36.0,30.26,North,0,0.0,5.0,97,0.00,,,0.39,,2013-01-15 08:53:00,
2013-01-15 04:02:00,37.0,36.0,30.27,North,349,1.0,5.0,97,0.00,,,0.39,,2013-01-15 09:02:00,
2013-01-15 04:12:00,37.0,36.0,30.27,North,349,1.0,5.0,97,0.00,,,0.39,,2013-01-15 09:12:00,
2013-01-15 04:22:00,37.0,36.0,30.27,North,0,0.0,5.0,97,0.00,,,0.39,,2013-01-15 09:22:00,
2013-01-15 04:33:00,37.0,36.0,30.27,WNW,296,1.0,5.0,97,0.00,,,0.39,,2013-01-15 09:33:00,
2013-01-15 04:42:00,37.0,36.0,30.27,WNW,296,1.0,5.0,97,0.00,,,0.39,,2013-01-15 09:42:00,
2013-01-15 04:52:00,37.0,36.0,30.25,WNW,298,3.0,6.0,97,0.00,,,0.39,,2013-01-15 09:52:00,
2013-01-15 05:02:00,37.0,36.0,30.25,WNW,299,4.0,6.0,97,0.00,,,0.39,,2013-01-15 10:02:00,
2013-01-15 05:12:00,37.0,36.0,30.25,WNW,299,4.0,6.0,97,0.00,,,0.39,,2013-01-15 10:12:00,
2013-01-15 05:22:00,37.0,36.0,30.26,North,0,0.0,4.0,97,0.00,,,0.39,,2013-01-15 10:22:00,
2013-01-15 05:32:00,37.0,36.0,30.27,North,0,0.0,2.0,97,0.00,,,0.39,,2013-01-15 10:32:00,
2013-01-15 05:42:00,37.0,36.0,30.27,North,0,0.0,2.0,97,0.00,,,0.39,,2013-01-15 10:42:00,
2013-01-15 05:52:00,37.0,36.0,30.28,North,0,0.0,3.0,97,0.00,,,0.39,,2013-01-15 10:52:00,
2013-01-15 06:02:00,37.0,36.0,30.27,North,0,0.0,4.0,97,0.00,,,0.39,,2013-01-15 11:02:00,
2013-01-15 06:12:00,37.0,36.0,30.28,WNW,296,1.0,5.0,97,0.00,,,0.39,,2013-01-15 11:12:00,
2013-01-15 06:22:00,37.0,36.0,30.28,WNW,296,1.0,5.0,97,0.00,,,0.39,,2013-01-15 11:22:00,
2013-01-15 06:33:00,37.0,36.0,30.29,WNW,297,2.0,5.0,97,0.00,,,0.39,,2013-01-15 11:33:00,
2013-01-15 06:43:00,37.0,36.0,30.29,WNW,297,2.0,5.0,97,0.00,,,0.39,,2013-01-15 11:43:00,
2013-01-15 06:53:00,36.0,35.0,30.29,North,0,0.0,5.0,97,0.00,,,0.39,,2013-01-15 11:53:00,
2013-01-15 07:03:00,36.0,35.0,30.30,WNW,296,1.0,4.0,97,0.00,,,0.39,,2013-01-15 12:03:00,
2013-01-15 07:12:00,36.0,35.0,30.30,WNW,296,1.0,4.0,97,0.00,,,0.39,,2013-01-15 12:12:00,
2013-01-15 07:22:00,36.0,35.0,30.30,North,0,0.0,6.0,97,0.00,,,0.39,,2013-01-15 12:22:00,
2013-01-15 07:33:00,36.0,35.0,30.31,North,0,0.0,4.0,97,0.00,,,0.39,,2013-01-15 12:33:00,
2013-01-15 07:43:00,36.0,35.0,30.31,North,0,0.0,4.0,97,0.00,,,0.39,,2013-01-15 12:43:00,
2013-01-15 07:53:00,36.0,35.0,30.31,WNW,297,3.0,5.0,96,0.00,,,0.39,,2013-01-15 12:53:00,
2013-01-15 08:03:00,36.0,35.0,30.32,North,0,0.0,1.0,96,0.00,,,0.39,,2013-01-15 13:03:00,
2013-01-15 08:12:00,36.0,35.0,30.32,North,0,0.0,1.0,96,0.00,,,0.39,,2013-01-15 13:12:00,
2013-01-15 08:23:00,36.0,35.0,30.32,WNW,296,4.0,11.0,95,0.00,,,0.39,,2013-01-15 13:23:00,
2013-01-15 08:33:00,36.0,35.0,30.32,WNW,296,4.0,11.0,95,0.00,,,0.39,,2013-01-15 13:33:00,
2013-01-15 08:43:00,36.0,35.0,30.32,WNW,296,4.0,11.0,95,0.00,,,0.39,,2013-01-15 13:43:00,
2013-01-15 08:53:00,35.0,33.0,30.35,NW,308,2.0,5.0,94,0.00,,,0.39,,2013-01-15 13:53:00,
2013-01-15 09:03:00,35.0,33.0,30.35,WNW,297,2.0,5.0,94,0.00,,,0.39,,2013-01-15 14:03:00,
2013-01-15 09:13:00,35.0,33.0,30.35,WNW,297,2.0,5.0,94,0.00,,,0.39,,2013-01-15 14:13:00,
2013-01-15 09:23:00,36.0,34.0,30.35,North,0,0.0,6.0,93,0.00,,,0.39,,2013-01-15 14:23:00,
2013-01-15 09:33:00,36.0,34.0,30.35,North,0,0.0,5.0,92,0.00,,,0.39,,2013-01-15 14:33:00,
2013-01-15 09:43:00,36.0,34.0,30.35,North,0,0.0,5.0,92,0.00,,,0.39,,2013-01-15 14:43:00,
2013-01-15 09:53:00,36.0,33.0,30.36,North,0,0.0,5.0,90,0.00,,,0.39,,2013-01-15 14:53:00,
2013-01-15 10:03:00,36.0,33.0,30.36,NNW,333,1.0,7.0,89,0.00,,,0.39,,2013-01-15 15:03:00,
2013-01-15 10:12:00,36.0,33.0,30.36,NNW,333,1.0,7.0,89,0.00,,,0.39,,2013-01-15 15:12:00,
2013-01-15 10:23:00,36.0,33.0,30.35,WNW,296,1.0,6.0,87,0.00,,,0.39,,2013-01-15 15:23:00,
2013-01-15 10:33:00,36.0,33.0,30.35,NW,305,3.0,7.0,87,0.00,,,0.39,,2013-01-15 15:33:00,
2013-01-15 10:43:00,36.0,33.0,30.35,NW,305,3.0,7.0,87,0.00,,,0.39,,2013-01-15 15:43:00,
2013-01-15 10:53:00,37.0,33.0,30.35,WNW,297,5.0,10.0,85,0.00,,,0.39,,2013-01-15 15:53:00,
2013-01-15 11:03:00,37.0,33.0,30.36,North,0,0.0,5.0,85,0.00,,,0.39,,2013-01-15 16:03:00,
2013-01-15 11:12:00,37.0,33.0,30.36,North,0,0.0,5.0,85,0.00,,,0.39,,2013-01-15 16:12:00,
2013-01-15 11:23:00,37.0,33.0,30.36,North,0,0.0,3.0,86,0.00,,,0.39,,2013-01-15 16:23:00,
2013-01-15 11:33:00,37.0,33.0,30.35,WNW,297,3.0,12.0,85,0.00,,,0.39,,2013-01-15 16:33:00,
2013-01-15 11:43:00,37.0,33.0,30.35,WNW,297,3.0,12.0,85,0.00,,,0.39,,2013-01-15 16:43:00,
2013-01-15 11:53:00,37.0,33.0,30.33,WNW,296,2.0,8.0,84,0.00,,,0.39,,2013-01-15 16:53:00,
2013-01-15 12:04:00,37.0,32.0,30.33,NNW,329,8.0,11.0,83,0.00,,,0.39,,2013-01-15 17:04:00,
2013-01-15 12:12:00,37.0,32.0,30.33,NNW,329,8.0,11.0,83,0.00,,,0.39,,2013-01-15 17:12:00,
2013-01-15 12:23:00,37.0,33.0,30.31,WNW,297,1.0,4.0,85,0.00,,,0.39,,2013-01-15 17:23:00,
2013-01-15 12:33:00,37.0,33.0,30.31,WNW,297,1.0,4.0,85,0.00,,,0.39,,2013-01-15 17:33:00,
2013-01-15 12:42:00,37.0,33.0,30.31,WNW,297,1.0,4.0,85,0.00,,,0.39,,2013-01-15 17:42:00,
2013-01-15 12:53:00,37.0,32.0,30.32,WNW,296,1.0,5.0,83,0.00,,,0.39,,2013-01-15 17:53:00,
2013-01-15 13:03:00,37.0,32.0,30.32,WNW,296,1.0,5.0,83,0.00,,,0.39,,2013-01-15 18:03:00,
2013-01-15 13:13:00,37.0,32.0,30.32,WNW,296,1.0,5.0,83,0.00,,,0.39,,2013-01-15 18:13:00,
2013-01-15 13:23:00,37.0,32.0,30.31,North,0,0.0,7.0,83,0.00,,,0.39,,2013-01-15 18:23:00,
2013-01-15 13:33:00,37.0,32.0,30.30,North,0,0.0,5.0,82,0.00,,,0.39,,2013-01-15 18:33:00,
2013-01-15 13:43:00,37.0,32.0,30.30,North,0,0.0,5.0,82,0.00,,,0.39,,2013-01-15 18:43:00,
2013-01-15 13:53:00,37.0,32.0,30.29,North,0,0.0,3.0,82,0.00,,,0.39,,2013-01-15 18:53:00,
2013-01-15 14:03:00,37.0,32.0,30.29,North,0,0.0,6.0,82,0.00,,,0.39,,2013-01-15 19:03:00,
2013-01-15 14:12:00,37.0,32.0,30.29,North,0,0.0,6.0,82,0.00,,,0.39,,2013-01-15 19:12:00,
2013-01-15 14:23:00,37.0,32.0,30.29,North,0,0.0,3.0,83,0.00,,,0.39,,2013-01-15 19:23:00,
2013-01-15 14:33:00,37.0,32.0,30.28,North,0,0.0,3.0,83,0.00,,,0.39,,2013-01-15 19:33:00,
2013-01-15 14:43:00,37.0,32.0,30.28,North,0,0.0,3.0,83,0.00,,,0.39,,2013-01-15 19:43:00,
2013-01-15 14:53:00,37.0,32.0,30.28,North,0,0.0,4.0,82,0.00,,,0.39,,2013-01-15 19:53:00,
2013-01-15 15:03:00,37.0,32.0,30.27,North,0,0.0,1.0,82,0.00,,,0.39,,2013-01-15 20:03:00,
2013-01-15 15:12:00,37.0,32.0,30.27,North,0,0.0,1.0,82,0.00,,,0.39,,2013-01-15 20:12:00,
2013-01-15 15:23:00,37.0,32.0,30.27,North,0,0.0,1.0,82,0.00,,,0.39,,2013-01-15 20:23:00,
2013-01-15 15:33:00,37.0,32.0,30.27,North,0,0.0,1.0,82,0.00,,,0.39,,2013-01-15 20:33:00,
2013-01-15 15:43:00,37.0,32.0,30.27,North,0,0.0,1.0,82,0.00,,,0.39,,2013-01-15 20:43:00,
2013-01-15 16:03:00,38.0,33.0,30.29,NNW,339,3.0,6.0,82,0.00,,,0.39,,2013-01-15 21:03:00,
2013-01-15 16:13:00,38.0,33.0,30.29,NNW,339,3.0,6.0,82,0.00,,,0.39,,2013-01-15 21:13:00,
2013-01-15 16:23:00,38.0,33.0,30.29,North,0,0.0,1.0,82,0.00,,,0.39,,2013-01-15 21:23:00,
2013-01-15 16:33:00,38.0,33.0,30.29,North,0,0.0,3.0,82,0.00,,,0.39,,2013-01-15 21:33:00,
2013-01-15 16:43:00,38.0,33.0,30.29,North,0,0.0,3.0,82,0.00,,,0.39,,2013-01-15 21:43:00,
2013-01-15 16:53:00,37.0,32.0,30.29,WNW,296,1.0,5.0,82,0.00,,,0.39,,2013-01-15 21:53:00,
2013-01-15 17:03:00,37.0,32.0,30.29,WNW,296,2.0,4.0,82,0.00,,,0.39,,2013-01-15 22:03:00,
2013-01-15 17:12:00,37.0,32.0,30.29,WNW,296,2.0,4.0,82,0.00,,,0.39,,2013-01-15 22:12:00,
2013-01-15 17:23:00,37.0,32.0,30.30,NW,319,2.0,5.0,81,0.00,,,0.39,,2013-01-15 22:23:00,
2013-01-15 17:33:00,37.0,32.0,30.29,North,0,0.0,4.0,81,0.00,,,0.39,,2013-01-15 22:33:00,
2013-01-15 17:43:00,37.0,32.0,30.29,North,0,0.0,4.0,81,0.00,,,0.39,,2013-01-15 22:43:00,
2013-01-15 17:53:00,37.0,32.0,30.28,North,0,0.0,1.0,81,0.00,,,0.39,,2013-01-15 22:53:00,
2013-01-15 18:02:00,37.0,32.0,30.25,North,0,0.0,4.0,82,0.00,,,0.39,,2013-01-15 23:02:00,
2013-01-15 18:13:00,37.0,32.0,30.25,North,0,0.0,4.0,82,0.00,,,0.39,,2013-01-15 23:13:00,
2013-01-15 18:22:00,37.0,32.0,30.26,North,0,0.0,4.0,82,0.00,,,0.39,,2013-01-15 23:22:00,
2013-01-15 18:33:00,37.0,32.0,30.29,NNW,336,3.0,5.0,82,0.00,,,0.39,,2013-01-15 23:33:00,
2013-01-15 18:43:00,37.0,32.0,30.29,NNW,336,3.0,5.0,82,0.00,,,0.39,,2013-01-15 23:43:00,
2013-01-15 18:53:00,37.0,32.0,30.29,North,0,0.0,5.0,82,0.00,,,0.39,,2013-01-15 23:53:00,
2013-01-15 19:03:00,37.0,32.0,30.29,North,0,0.0,5.0,82,0.00,,,0.39,,2013-01-16 00:03:00,
2013-01-15 19:13:00,37.0,32.0,30.29,North,0,0.0,5.0,82,0.00,,,0.39,,2013-01-16 00:13:00,
2013-01-15 19:22:00,36.0,31.0,30.30,WNW,290,2.0,4.0,82,0.00,,,0.39,,2013-01-16 00:22:00,
2013-01-15 19:33:00,36.0,30.0,30.29,NW,313,1.0,6.0,79,0.00,,,0.39,,2013-01-16 00:33:00,
2013-01-15 19:43:00,36.0,30.0,30.29,NW,313,1.0,6.0,79,0.00,,,0.39,,2013-01-16 00:43:00,
2013-01-15 19:52:00,36.0,30.0,30.29,North,0,0.0,4.0,79,0.00,,,0.39,,2013-01-16 00:52:00,
2013-01-15 20:03:00,36.0,30.0,30.30,North,0,0.0,2.0,79,0.00,,,0.39,,2013-01-16 01:03:00,
2013-01-15 20:12:00,36.0,30.0,30.30,North,0,0.0,2.0,79,0.00,,,0.39,,2013-01-16 01:12:00,
2013-01-15 20:22:00,36.0,30.0,30.30,WNW,297,1.0,4.0,79,0.00,,,0.39,,2013-01-16 01:22:00,
2013-01-15 20:33:00,36.0,31.0,30.28,WNW,297,3.0,6.0,81,0.00,,,0.37,,2013-01-16 01:33:00,
2013-01-15 20:43:00,36.0,31.0,30.28,WNW,297,3.0,6.0,81,0.00,,,0.37,,2013-01-16 01:43:00,
2013-01-15 20:52:00,35.0,30.0,30.27,North,0,0.0,4.0,82,0.00,,,0.36,,2013-01-16 01:52:00,
2013-01-15 21:03:00,35.0,30.0,30.26,WNW,297,1.0,5.0,82,0.00,,,0.35,,2013-01-16 02:03:00,
2013-01-15 21:12:00,35.0,30.0,30.26,WNW,297,1.0,5.0,82,0.00,,,0.35,,2013-01-16 02:12:00,
2013-01-15 21:22:00,35.0,30.0,30.27,North,0,0.0,4.0,82,0.00,,,0.34,,2013-01-16 02:22:00,
2013-01-15 21:32:00,35.0,30.0,30.27,North,0,0.0,4.0,82,0.00,,,0.34,,2013-01-16 02:32:00,
2013-01-15 21:42:00,35.0,30.0,30.27,North,0,0.0,4.0,82,0.00,,,0.34,,2013-01-16 02:42:00,
2013-01-15 21:53:00,34.0,30.0,30.26,North,0,0.0,2.0,85,0.02,,,0.35,,2013-01-16 02:53:00,
2013-01-15 22:03:00,34.0,31.0,30.25,North,0,0.0,1.0,87,0.03,,,0.35,,2013-01-16 03:03:00,
2013-01-15 22:12:00,34.0,31.0,30.26,North,0,0.0,2.0,90,0.06,,,0.37,,2013-01-16 03:12:00,
2013-01-15 22:22:00,34.0,31.0,30.26,North,0,0.0,2.0,90,0.06,,,0.37,,2013-01-16 03:22:00,
2013-01-15 22:33:00,34.0,32.0,30.26,North,0,0.0,2.0,91,0.07,,,0.37,,2013-01-16 03:33:00,
2013-01-15 22:43:00,34.0,32.0,30.26,North,0,0.0,2.0,91,0.07,,,0.37,,2013-01-16 03:43:00,
2013-01-15 22:53:00,33.0,31.0,30.24,North,0,0.0,2.0,92,0.08,,,0.38,,2013-01-16 03:53:00,
2013-01-15 23:02:00,33.0,31.0,30.24,North,0,0.0,3.0,93,0.09,,,0.40,,2013-01-16 04:02:00,
2013-01-15 23:12:00,33.0,31.0,30.24,North,0,0.0,3.0,93,0.09,,,0.40,,2013-01-16 04:12:00,
2013-01-15 23:22:00,33.0,31.0,30.23,North,0,0.0,3.0,94,0.10,,,0.40,,2013-01-16 04:22:00,
2013-01-15 23:33:00,33.0,31.0,30.24,North,0,0.0,2.0,94,0.11,,,0.40,,2013-01-16 04:33:00,
2013-01-15 23:42:00,33.0,31.0,30.24,North,0,0.0,2.0,94,0.11,,,0.40,,2013-01-16 04:42:00,
2013-01-15 23:52:00,32.0,31.0,30.22,WNW,296,1.0,3.0,95,0.12,,,0.42,,2013-01-16 04:52:00,